Airfield :
LOGIN :

Register | Disclaimer

   EN    FR    IT 

 










Legend :    VFR   Marginal VFR   IFR   Intensive IFR   Very Intensive IFR
Visi :
Ceiling :
>= 8 km
>= 3000ft
5 to 8 km
1000 to 3000 ft
1500m to 5 km
500 to 1000 ft
800 to 1500m
200 to 500 ft
< 800m
< 200 ft
Symbols :   Thunderstorms  Fog  Heavy snow  Heavy precipitations  Wind > 20 kt
SIGMETs :     Misc.  Thunderstorms  Icing  Turbulence  Mountain Waves  Volcanic Ashes






- Airport Elevation : 1465 ft


LSMP - Payerne

CURRENT METAR :
  • 241720Z AUTO 21003KT 170V240 9999NDV BKN096 BKN110 02/M02 Q1002 RMK

EXPIRED METARs :
  • 241650Z AUTO 20005KT 9999NDV BKN110 03/M03 Q1002 RMK
  • 241620Z AUTO 24005KT 200V330 9999NDV FEW110 03/M04 Q1002 RMK
  • 241550Z AUTO 21005KT 170V230 9999NDV NCD 03/M04 Q1002 RMK
  • 241520Z AUTO 22007KT 9999NDV NCD 04/M04 Q1003 RMK

Expired Forecast.



MET'MAP, your aeronautical weather chart ! - Copyright ORBIFLY December 2007 - Disclaimer

ORBIFLY MET'MAP TEAM :

Programming & Development : Alexandra Zaïnal
Concept & original design : Baudouin d'Aumeries
Assistance for programming : Marc-Olivier Méhu
Technical & hardware support : Manuel Goepfert

Contact : metmap@orbifly.com




SOURCES & CREDITS :

   NOAA